createdAt,value
2023-04-01T00:01:03.727Z,66.01
2023-04-01T00:03:34.362Z,65.86
2023-04-01T00:06:03.950Z,65.90
2023-04-01T00:08:31.994Z,65.46
2023-04-01T00:10:59.975Z,65.95
2023-04-01T00:13:28.349Z,65.49
2023-04-01T00:15:56.668Z,65.51
2023-04-01T00:18:25.698Z,65.59
2023-04-01T00:20:53.731Z,65.56
2023-04-01T00:23:23.009Z,65.71
2023-04-01T00:25:50.968Z,65.80
2023-04-01T00:28:19.212Z,65.58
2023-04-01T00:30:47.240Z,65.90
2023-04-01T00:33:15.214Z,65.44
2023-04-01T00:35:43.076Z,65.48
2023-04-01T00:38:12.325Z,65.56
2023-04-01T00:40:42.432Z,65.37
2023-04-01T00:43:14.261Z,65.59
2023-04-01T00:45:42.625Z,65.18
2023-04-01T00:48:12.528Z,65.42
2023-04-01T00:50:41.259Z,65.59
2023-04-01T00:53:09.107Z,65.60
2023-04-01T00:55:39.148Z,65.37
2023-04-01T00:58:09.778Z,65.52
2023-04-01T01:00:37.728Z,65.47
2023-04-01T01:03:05.698Z,65.47
2023-04-01T01:05:48.475Z,65.22
2023-04-01T01:08:19.095Z,65.26
2023-04-01T01:10:48.405Z,65.51
2023-04-01T01:13:19.796Z,65.50
2023-04-01T01:15:48.766Z,65.07
2023-04-01T01:18:20.944Z,64.98
2023-04-01T01:21:08.098Z,65.22
2023-04-01T01:24:12.328Z,65.22
2023-04-01T01:26:49.149Z,65.16
2023-04-01T01:29:29.871Z,65.31
2023-04-01T01:31:59.914Z,65.43
2023-04-01T01:34:29.765Z,65.67
2023-04-01T01:37:00.582Z,65.82
2023-04-01T01:39:30.394Z,65.47
2023-04-01T01:41:58.320Z,65.55
2023-04-01T01:44:26.213Z,65.72
2023-04-01T01:46:54.081Z,65.81
2023-04-01T01:49:21.966Z,65.57
2023-04-01T01:51:50.078Z,65.45
2023-04-01T01:54:20.045Z,65.58
2023-04-01T01:56:55.588Z,65.62
2023-04-01T01:59:23.530Z,65.39
2023-04-01T02:02:00.029Z,65.43
2023-04-01T02:04:28.168Z,65.40
2023-04-01T02:06:58.343Z,65.49
2023-04-01T02:09:27.598Z,65.29
2023-04-01T02:11:58.064Z,65.32
2023-04-01T02:14:27.129Z,65.31
2023-04-01T02:16:57.243Z,65.32
2023-04-01T02:19:26.766Z,65.33
2023-04-01T02:21:56.443Z,65.54
2023-04-01T02:24:24.901Z,65.20
2023-04-01T02:26:54.183Z,65.23
2023-04-01T02:29:22.912Z,65.15
2023-04-01T02:31:50.935Z,65.12
2023-04-01T02:34:18.972Z,64.92
2023-04-01T02:36:46.821Z,64.70
2023-04-01T02:39:14.757Z,64.84
2023-04-01T02:41:42.886Z,65.00
2023-04-01T02:44:12.317Z,64.96
2023-04-01T02:46:40.222Z,65.11
2023-04-01T02:49:08.169Z,64.79
2023-04-01T02:51:36.103Z,64.79
2023-04-01T02:54:04.018Z,64.66
2023-04-01T02:56:31.885Z,64.99
2023-04-01T02:58:59.714Z,64.91
2023-04-01T03:01:29.117Z,64.57
2023-04-01T03:03:57.154Z,64.72
2023-04-01T03:06:25.034Z,64.80
2023-04-01T03:08:52.873Z,64.81
2023-04-01T03:11:20.835Z,64.80
2023-04-01T03:13:49.749Z,64.84
2023-04-01T03:16:17.733Z,64.93
2023-04-01T03:18:47.053Z,64.93
2023-04-01T03:21:16.511Z,64.93
2023-04-01T03:23:44.394Z,64.80
2023-04-01T03:26:12.697Z,64.91
2023-04-01T03:28:40.594Z,64.63
2023-04-01T03:31:08.581Z,64.78
2023-04-01T03:33:36.472Z,64.96
2023-04-01T03:36:07.470Z,64.59
2023-04-01T03:38:35.684Z,64.96
2023-04-01T03:41:03.761Z,65.04
2023-04-01T03:43:31.677Z,64.80
2023-04-01T03:45:59.654Z,64.67
2023-04-01T03:48:27.569Z,64.68
2023-04-01T03:50:55.528Z,64.86
2023-04-01T03:53:24.797Z,64.71
2023-04-01T03:55:53.022Z,64.70
2023-04-01T03:58:20.953Z,64.77
2023-04-01T04:00:48.833Z,64.61
2023-04-01T04:03:17.031Z,64.86
2023-04-01T04:05:49.222Z,64.69
2023-04-01T04:08:17.144Z,64.77
2023-04-01T04:10:47.407Z,64.97
2023-04-01T04:13:15.441Z,64.93
2023-04-01T04:15:43.356Z,64.79
2023-04-01T04:18:11.254Z,64.92
2023-04-01T04:20:39.158Z,64.92
2023-04-01T04:23:07.091Z,64.97
2023-04-01T04:25:35.056Z,64.63
2023-04-01T04:28:04.509Z,64.71
2023-04-01T04:30:32.512Z,64.58
2023-04-01T04:33:00.543Z,64.60
2023-04-01T04:35:28.408Z,64.82
2023-04-01T04:37:56.285Z,64.81
2023-04-01T04:40:24.124Z,64.75
2023-04-01T04:42:51.956Z,64.50
2023-04-01T04:45:21.321Z,64.49
2023-04-01T04:47:49.242Z,64.76
2023-04-01T04:50:17.901Z,64.87
2023-04-01T04:52:45.849Z,64.68
2023-04-01T04:55:13.763Z,64.64
2023-04-01T04:57:41.618Z,64.69
2023-04-01T05:00:11.123Z,64.62
2023-04-01T05:02:40.547Z,64.55
2023-04-01T05:05:09.476Z,64.76
2023-04-01T05:07:37.356Z,64.60
2023-04-01T05:10:05.904Z,64.37
2023-04-01T05:12:37.128Z,64.70
2023-04-01T05:15:05.536Z,64.47
2023-04-01T05:17:33.446Z,64.68
2023-04-01T05:20:04.338Z,64.48
2023-04-01T05:22:32.201Z,64.49
2023-04-01T05:25:00.092Z,64.57
2023-04-01T05:27:28.032Z,64.52
2023-04-01T05:29:56.097Z,64.44
2023-04-01T05:32:24.002Z,64.56
2023-04-01T05:34:52.550Z,64.67
2023-04-01T05:37:21.842Z,64.54
2023-04-01T05:39:49.697Z,64.67
2023-04-01T05:42:17.783Z,64.46
2023-04-01T05:44:45.725Z,64.58
2023-04-01T05:47:13.711Z,64.16
2023-04-01T05:49:41.597Z,64.51
2023-04-01T05:52:09.871Z,64.51
2023-04-01T05:54:39.113Z,64.39
2023-04-01T05:57:06.998Z,64.17
2023-04-01T05:59:35.942Z,64.15
2023-04-01T06:02:03.883Z,64.15
2023-04-01T06:04:35.007Z,64.34
2023-04-01T06:07:02.933Z,64.19
2023-04-01T06:09:41.453Z,64.18
2023-04-01T06:12:31.805Z,64.37
2023-04-01T06:15:05.886Z,64.12
2023-04-01T06:17:42.969Z,64.14
2023-04-01T06:20:14.505Z,64.31
2023-04-01T06:22:51.526Z,64.16
2023-04-01T06:25:41.952Z,64.44
2023-04-01T06:28:43.692Z,64.33
2023-04-01T06:31:15.116Z,64.21
2023-04-01T06:33:57.563Z,64.46
2023-04-01T06:36:53.246Z,64.07
2023-04-01T06:39:37.006Z,64.25
2023-04-01T06:42:25.049Z,63.99
2023-04-01T06:44:59.515Z,64.42
2023-04-01T06:47:38.531Z,64.05
2023-04-01T06:50:10.091Z,64.04
2023-04-01T06:52:42.198Z,63.97
2023-04-01T06:55:22.383Z,63.94
2023-04-01T06:57:55.466Z,63.90
2023-04-01T07:00:30.464Z,63.97
2023-04-01T07:03:06.575Z,63.94
2023-04-01T07:05:37.399Z,63.96
2023-04-01T07:08:06.837Z,63.88
2023-04-01T07:10:38.108Z,63.63
2023-04-01T07:13:07.128Z,63.87
2023-04-01T07:15:39.156Z,63.76
2023-04-01T07:18:18.273Z,63.79
2023-04-01T07:20:48.529Z,63.67
2023-04-01T07:23:20.402Z,63.57
2023-04-01T07:25:49.520Z,63.60
2023-04-01T07:28:18.606Z,63.49
2023-04-01T07:30:55.078Z,63.63
2023-04-01T07:33:25.489Z,63.44
2023-04-01T07:35:55.743Z,63.37
2023-04-01T07:38:26.889Z,63.45
2023-04-01T07:40:57.571Z,63.61
2023-04-01T07:43:58.299Z,63.60
2023-04-01T07:46:36.061Z,63.84
2023-04-01T07:49:06.313Z,63.74
2023-04-01T07:51:36.787Z,63.46
2023-04-01T07:54:08.715Z,63.60
2023-04-01T07:56:39.161Z,63.32
2023-04-01T07:59:11.154Z,63.45
2023-04-01T08:01:43.020Z,63.35
2023-04-01T08:04:24.587Z,63.37
2023-04-01T08:06:57.884Z,63.16
2023-04-01T08:09:30.460Z,63.07
2023-04-01T08:12:08.839Z,62.87
2023-04-01T08:14:41.377Z,62.97
2023-04-01T08:17:13.419Z,62.87
2023-04-01T08:19:53.228Z,63.15
2023-04-01T08:22:24.201Z,62.82
2023-04-01T08:24:56.637Z,62.96
2023-04-01T08:27:27.381Z,63.15
2023-04-01T08:30:05.214Z,63.02
2023-04-01T08:32:36.817Z,63.08
2023-04-01T08:35:13.728Z,62.62
2023-04-01T08:37:42.868Z,62.37
2023-04-01T08:40:42.311Z,62.36
2023-04-01T08:43:13.456Z,62.48
2023-04-01T08:45:54.302Z,62.66
2023-04-01T08:48:32.662Z,62.47
2023-04-01T08:51:19.153Z,62.75
2023-04-01T08:54:07.646Z,62.75
2023-04-01T08:56:38.828Z,62.82
2023-04-01T08:59:28.096Z,62.24
2023-04-01T09:02:22.644Z,62.41
2023-04-01T09:05:16.315Z,62.11
2023-04-01T09:07:48.591Z,61.96
2023-04-01T09:10:38.425Z,62.30
2023-04-01T09:13:43.664Z,61.89
2023-04-01T09:16:48.304Z,61.74
2023-04-01T09:19:28.009Z,62.18
2023-04-01T09:22:20.065Z,62.03
2023-04-01T09:25:09.637Z,62.33
2023-04-01T09:27:42.940Z,63.24
2023-04-01T09:30:34.464Z,63.36
2023-04-01T09:33:45.978Z,63.73
2023-04-01T09:36:27.360Z,64.18
2023-04-01T09:39:01.707Z,64.37
2023-04-01T09:41:32.631Z,64.61
2023-04-01T09:44:05.587Z,64.53
2023-04-01T09:46:40.495Z,64.64
2023-04-01T09:49:21.715Z,65.04
2023-04-01T09:51:56.574Z,65.09
2023-04-01T09:54:37.481Z,65.16
2023-04-01T09:57:37.780Z,65.28
2023-04-01T10:00:24.457Z,65.07
2023-04-01T10:03:21.772Z,65.03
2023-04-01T10:06:06.435Z,65.22
2023-04-01T10:08:56.838Z,64.91
2023-04-01T10:12:07.431Z,64.75
2023-04-01T10:14:47.796Z,65.07
2023-04-01T10:17:30.872Z,65.14
2023-04-01T10:20:11.900Z,65.27
2023-04-01T10:22:49.201Z,65.39
2023-04-01T10:25:37.759Z,65.38
2023-04-01T10:28:14.860Z,65.34
2023-04-01T10:31:11.502Z,65.58
2023-04-01T10:34:02.314Z,65.73
2023-04-01T10:36:50.454Z,65.74
2023-04-01T10:39:55.572Z,65.41
2023-04-01T10:42:52.249Z,65.44
2023-04-01T10:45:57.753Z,65.88
2023-04-01T10:49:00.496Z,66.05
2023-04-01T10:51:59.746Z,66.28
2023-04-01T10:54:44.564Z,66.32
2023-04-01T10:57:28.461Z,66.03
2023-04-01T11:00:20.155Z,66.43
2023-04-01T11:03:09.535Z,66.01
2023-04-01T11:06:20.068Z,66.26
2023-04-01T11:09:33.204Z,66.15
2023-04-01T11:12:29.697Z,66.75
2023-04-01T11:15:39.256Z,66.67
2023-04-01T11:18:29.944Z,66.36
2023-04-01T11:21:38.771Z,66.04
2023-04-01T11:24:16.284Z,66.43
2023-04-01T11:26:52.444Z,66.48
2023-04-01T11:29:56.649Z,66.28
2023-04-01T11:32:33.846Z,66.48
2023-04-01T11:35:37.999Z,66.43
2023-04-01T11:38:15.761Z,66.95
2023-04-01T11:40:46.335Z,66.87
2023-04-01T11:43:26.332Z,66.88
2023-04-01T11:46:01.253Z,66.78
2023-04-01T11:49:00.252Z,67.28
2023-04-01T11:52:04.327Z,66.87
2023-04-01T11:54:49.379Z,67.13
2023-04-01T11:57:30.697Z,67.01
2023-04-01T12:00:08.373Z,66.73
2023-04-01T12:02:40.555Z,66.76
2023-04-01T12:05:21.021Z,66.88
2023-04-01T12:08:09.542Z,66.78
2023-04-01T12:10:42.528Z,66.82
2023-04-01T12:13:17.824Z,66.85
2023-04-01T12:16:00.098Z,66.62
2023-04-01T12:18:30.434Z,66.79
2023-04-01T12:21:00.045Z,67.00
2023-04-01T12:23:48.769Z,67.09
2023-04-01T12:26:36.257Z,66.65
2023-04-01T12:29:11.808Z,67.16
2023-04-01T12:31:44.665Z,66.45
2023-04-01T12:34:36.816Z,66.87
2023-04-01T12:37:09.965Z,66.93
2023-04-01T12:39:54.601Z,67.20
2023-04-01T12:42:37.983Z,66.93
2023-04-01T12:45:19.673Z,67.15
2023-04-01T12:48:06.980Z,66.72
2023-04-01T12:50:44.844Z,66.89
2023-04-01T12:53:40.541Z,66.66
2023-04-01T12:56:14.119Z,66.27
2023-04-01T12:59:04.166Z,66.32
2023-04-01T13:01:39.407Z,66.75
2023-04-01T13:04:41.163Z,66.70
2023-04-01T13:07:25.773Z,66.15
2023-04-01T13:10:00.732Z,65.38
2023-04-01T13:12:43.648Z,65.46
2023-04-01T13:15:28.710Z,70.60
2023-04-01T13:18:01.212Z,74.96
2023-04-01T13:20:37.192Z,74.99
2023-04-01T13:23:18.988Z,72.74
2023-04-01T13:25:51.089Z,69.39
2023-04-01T13:28:27.337Z,69.65
2023-04-01T13:31:08.164Z,69.79
2023-04-01T13:33:43.409Z,69.99
2023-04-01T13:36:17.575Z,68.50
2023-04-01T13:39:00.848Z,65.72
2023-04-01T13:41:35.944Z,64.70
2023-04-01T13:44:09.159Z,62.76
2023-04-01T13:46:46.268Z,62.99
2023-04-01T13:49:26.289Z,63.63
2023-04-01T13:52:27.842Z,65.23
2023-04-01T13:55:14.082Z,61.90
2023-04-01T13:57:56.841Z,60.99
2023-04-01T14:00:34.849Z,59.71
2023-04-01T14:03:32.858Z,57.45
2023-04-01T14:06:33.927Z,55.89
2023-04-01T14:09:32.595Z,55.88
2023-04-01T14:12:05.445Z,55.81
2023-04-01T14:14:39.115Z,54.91
2023-04-01T14:17:16.709Z,53.52
2023-04-01T14:19:55.034Z,52.35
2023-04-01T14:22:27.480Z,52.94
2023-04-01T14:25:18.155Z,52.60
2023-04-01T14:27:54.010Z,53.70
2023-04-01T14:30:46.098Z,54.05
2023-04-01T14:33:23.235Z,53.14
2023-04-01T14:35:58.682Z,50.32
2023-04-01T14:38:50.437Z,51.06
2023-04-01T14:41:24.648Z,51.34
2023-04-01T14:44:03.644Z,50.09
2023-04-01T14:47:08.303Z,49.97
2023-04-01T14:49:37.780Z,49.38
2023-04-01T14:52:12.197Z,49.67
2023-04-01T14:54:41.411Z,48.32
2023-04-01T14:57:13.817Z,47.70
2023-04-01T14:59:42.447Z,47.65
2023-04-01T15:02:24.649Z,47.89
2023-04-01T15:04:57.259Z,46.26
2023-04-01T15:07:57.247Z,44.59
2023-04-01T15:10:41.333Z,44.85
2023-04-01T15:13:14.770Z,43.61
2023-04-01T15:15:51.507Z,42.86
2023-04-01T15:18:23.700Z,42.45
2023-04-01T15:21:17.333Z,41.38
2023-04-01T15:24:00.042Z,40.96
2023-04-01T15:26:54.108Z,40.99
2023-04-01T15:29:35.432Z,41.21
2023-04-01T15:32:05.076Z,40.92
2023-04-01T15:34:38.188Z,41.94
2023-04-01T15:37:10.339Z,41.41
2023-04-01T15:39:46.577Z,41.47
2023-04-01T15:42:25.779Z,41.05
2023-04-01T15:45:00.985Z,40.35
2023-04-01T15:47:40.614Z,40.40
2023-04-01T15:50:49.295Z,40.39
2023-04-01T15:53:25.955Z,40.25
2023-04-01T15:55:57.762Z,40.79
2023-04-01T15:58:37.408Z,39.91
2023-04-01T16:01:11.060Z,39.30
2023-04-01T16:03:41.435Z,39.92
2023-04-01T16:06:29.489Z,40.09
2023-04-01T16:09:04.265Z,39.56
2023-04-01T16:11:42.018Z,39.61
2023-04-01T16:14:16.174Z,39.12
2023-04-01T16:16:52.730Z,39.23
2023-04-01T16:19:48.777Z,38.12
2023-04-01T16:22:22.375Z,38.66
2023-04-01T16:24:54.196Z,38.53
2023-04-01T16:27:31.408Z,38.27
2023-04-01T16:30:03.175Z,39.00
2023-04-01T16:32:40.212Z,38.60
2023-04-01T16:35:22.423Z,39.49
2023-04-01T16:37:52.418Z,38.89
2023-04-01T16:40:30.493Z,38.41
2023-04-01T16:43:07.327Z,38.64
2023-04-01T16:45:37.414Z,38.80
2023-04-01T16:48:09.898Z,38.79
2023-04-01T16:50:47.751Z,38.06
2023-04-01T16:53:20.309Z,38.90
2023-04-01T16:55:54.179Z,40.11
2023-04-01T16:58:29.766Z,41.16
2023-04-01T17:01:01.051Z,42.34
2023-04-01T17:03:31.729Z,42.92
2023-04-01T17:06:06.192Z,43.98
2023-04-01T17:08:45.132Z,44.93
2023-04-01T17:11:17.905Z,45.41
2023-04-01T17:13:55.895Z,46.00
2023-04-01T17:16:38.544Z,46.99
2023-04-01T17:19:10.432Z,47.20
2023-04-01T17:21:53.212Z,47.86
2023-04-01T17:24:30.344Z,48.10
2023-04-01T17:27:00.601Z,48.35
2023-04-01T17:29:34.517Z,48.57
2023-04-01T17:32:06.080Z,48.74
2023-04-01T17:34:45.461Z,49.07
2023-04-01T17:37:29.940Z,49.43
2023-04-01T17:40:03.043Z,50.11
2023-04-01T17:42:37.456Z,50.37
2023-04-01T17:45:10.020Z,50.30
2023-04-01T17:47:46.642Z,50.03
2023-04-01T17:50:26.257Z,50.16
2023-04-01T17:53:01.570Z,49.82
2023-04-01T17:55:46.511Z,49.84
2023-04-01T17:58:19.378Z,50.04
2023-04-01T18:01:00.804Z,49.95
2023-04-01T18:03:44.844Z,49.86
2023-04-01T18:06:20.539Z,49.82
2023-04-01T18:09:00.220Z,49.89
2023-04-01T18:11:36.337Z,49.91
2023-04-01T18:14:26.167Z,50.25
2023-04-01T18:17:16.688Z,50.27
2023-04-01T18:19:48.900Z,50.44
2023-04-01T18:22:19.692Z,50.32
2023-04-01T18:24:49.826Z,50.68
2023-04-01T18:27:18.505Z,50.49
2023-04-01T18:29:50.694Z,51.06
2023-04-01T18:32:30.443Z,50.86
2023-04-01T18:35:05.057Z,51.25
2023-04-01T18:37:34.571Z,51.59
2023-04-01T18:40:12.631Z,51.75
2023-04-01T18:42:45.470Z,51.80
2023-04-01T18:45:20.136Z,51.99
2023-04-01T18:47:56.732Z,52.26
2023-04-01T18:50:25.649Z,52.26
2023-04-01T18:52:56.513Z,52.66
2023-04-01T18:55:35.030Z,53.06
2023-04-01T18:58:13.899Z,53.01
2023-04-01T19:00:44.237Z,52.93
2023-04-01T19:03:18.444Z,53.04
2023-04-01T19:05:47.831Z,52.93
2023-04-01T19:08:30.571Z,53.07
2023-04-01T19:11:10.258Z,53.41
2023-04-01T19:13:45.321Z,53.42
2023-04-01T19:16:17.545Z,53.50
2023-04-01T19:18:58.190Z,53.78
2023-04-01T19:21:29.814Z,53.63
2023-04-01T19:24:23.476Z,53.71
2023-04-01T19:27:01.503Z,53.85
2023-04-01T19:29:37.684Z,53.93
2023-04-01T19:32:11.559Z,54.09
2023-04-01T19:34:47.973Z,53.85
2023-04-01T19:37:24.768Z,54.17
2023-04-01T19:39:55.098Z,54.35
2023-04-01T19:42:26.978Z,54.25
2023-04-01T19:44:59.881Z,54.20
2023-04-01T19:47:38.503Z,54.23
2023-04-01T19:50:11.659Z,54.42
2023-04-01T19:52:40.174Z,54.48
2023-04-01T19:55:16.151Z,54.71
2023-04-01T19:57:48.849Z,54.66
2023-04-01T20:00:19.598Z,54.79
2023-04-01T20:03:01.762Z,54.89
2023-04-01T20:05:36.450Z,54.82
2023-04-01T20:08:09.928Z,55.00
2023-04-01T20:10:41.375Z,54.88
2023-04-01T20:13:14.243Z,54.94
2023-04-01T20:15:43.113Z,54.73
2023-04-01T20:18:16.292Z,55.31
2023-04-01T20:20:53.986Z,54.80
2023-04-01T20:23:42.145Z,54.80
2023-04-01T20:26:10.811Z,55.08
2023-04-01T20:28:44.692Z,55.07
2023-04-01T20:31:23.893Z,55.12
2023-04-01T20:34:23.033Z,54.93
2023-04-01T20:37:03.079Z,54.99
2023-04-01T20:39:55.082Z,55.07
2023-04-01T20:42:37.584Z,54.88
2023-04-01T20:45:16.926Z,55.02
2023-04-01T20:47:54.174Z,54.95
2023-04-01T20:50:23.700Z,54.99
2023-04-01T20:52:58.656Z,54.52
2023-04-01T20:55:56.767Z,54.66
2023-04-01T20:58:30.896Z,54.52
2023-04-01T21:01:03.327Z,54.80
2023-04-01T21:03:39.277Z,54.70
2023-04-01T21:06:35.732Z,54.65
2023-04-01T21:09:18.674Z,54.87
2023-04-01T21:11:51.684Z,54.71
2023-04-01T21:14:34.483Z,54.81
2023-04-01T21:17:06.560Z,54.49
2023-04-01T21:19:42.957Z,54.55
2023-04-01T21:22:36.450Z,54.69
2023-04-01T21:25:20.306Z,54.64
2023-04-01T21:27:55.036Z,54.60
2023-04-01T21:30:41.268Z,54.75
2023-04-01T21:33:21.095Z,54.88
2023-04-01T21:35:53.323Z,54.71
2023-04-01T21:38:28.873Z,54.82
2023-04-01T21:41:39.209Z,54.92
2023-04-01T21:44:40.904Z,54.85
2023-04-01T21:47:19.469Z,55.17
2023-04-01T21:49:56.869Z,54.96
2023-04-01T21:52:55.614Z,55.07
2023-04-01T21:55:56.323Z,55.08
2023-04-01T21:59:06.602Z,54.93
2023-04-01T22:01:48.086Z,55.02
2023-04-01T22:04:38.429Z,55.23
2023-04-01T22:07:11.256Z,55.24
2023-04-01T22:09:40.815Z,55.34
2023-04-01T22:12:11.009Z,55.21
2023-04-01T22:14:43.012Z,55.49
2023-04-01T22:17:18.046Z,55.44
2023-04-01T22:19:51.881Z,55.31
2023-04-01T22:22:21.490Z,55.29
2023-04-01T22:24:55.302Z,55.44
2023-04-01T22:27:27.346Z,55.50
2023-04-01T22:30:01.485Z,55.45
2023-04-01T22:32:33.022Z,55.39
2023-04-01T22:35:05.507Z,55.49
2023-04-01T22:37:35.368Z,55.48
2023-04-01T22:40:19.647Z,55.70
2023-04-01T22:42:48.085Z,55.73
2023-04-01T22:45:33.991Z,55.56
2023-04-01T22:48:07.854Z,55.92
2023-04-01T22:50:38.790Z,55.70
2023-04-01T22:53:15.871Z,55.92
2023-04-01T22:55:53.109Z,55.92
2023-04-01T22:58:24.000Z,56.05
2023-04-01T23:00:53.548Z,55.91
2023-04-01T23:03:23.904Z,55.95
2023-04-01T23:05:53.231Z,56.05
2023-04-01T23:08:41.485Z,56.06
2023-04-01T23:11:09.637Z,56.13
2023-04-01T23:13:39.194Z,56.26
2023-04-01T23:16:07.615Z,56.47
2023-04-01T23:18:37.649Z,56.23
2023-04-01T23:21:14.692Z,56.45
2023-04-01T23:23:48.385Z,56.29
2023-04-01T23:26:17.655Z,56.58
2023-04-01T23:28:50.194Z,56.66
2023-04-01T23:31:32.127Z,56.56
2023-04-01T23:34:02.841Z,56.65
2023-04-01T23:36:32.142Z,56.76
2023-04-01T23:39:02.511Z,56.78
2023-04-01T23:41:31.974Z,56.92
2023-04-01T23:44:01.984Z,56.88
2023-04-01T23:46:30.525Z,56.92
2023-04-01T23:48:58.636Z,56.76
2023-04-01T23:51:29.776Z,56.84
2023-04-01T23:54:04.557Z,56.82
2023-04-01T23:56:41.706Z,56.92
2023-04-01T23:59:12.883Z,57.28
